sensor_id;sensor_type;location;lat;lon;timestamp;temperature;humidity
1592;DHT22;789;51.612;7.510;2024-01-15T00:01:35;2.50;1.00
1592;DHT22;789;51.612;7.510;2024-01-15T00:04:02;2.50;1.00
1592;DHT22;789;51.612;7.510;2024-01-15T00:06:29;2.50;1.00
1592;DHT22;789;51.612;7.510;2024-01-15T00:08:55;2.50;1.00
1592;DHT22;789;51.612;7.510;2024-01-15T00:11:23;2.40;1.00
1592;DHT22;789;51.612;7.510;2024-01-15T00:13:50;2.40;1.00
1592;DHT22;789;51.612;7.510;2024-01-15T00:16:17;2.50;1.00
1592;DHT22;789;51.612;7.510;2024-01-15T00:18:45;2.40;1.00
1592;DHT22;789;51.612;7.510;2024-01-15T00:21:12;2.40;1.00
1592;DHT22;789;51.612;7.510;2024-01-15T00:23:41;2.50;1.00
1592;DHT22;789;51.612;7.510;2024-01-15T00:26:08;2.50;1.00
1592;DHT22;789;51.612;7.510;2024-01-15T00:28:36;2.50;1.00
1592;DHT22;789;51.612;7.510;2024-01-15T00:31:03;2.50;1.00
1592;DHT22;789;51.612;7.510;2024-01-15T00:33:30;2.50;1.00
1592;DHT22;789;51.612;7.510;2024-01-15T00:35:58;2.50;1.00
1592;DHT22;789;51.612;7.510;2024-01-15T00:38:25;2.40;1.00
1592;DHT22;789;51.612;7.510;2024-01-15T00:40:52;2.50;1.00
1592;DHT22;789;51.612;7.510;2024-01-15T00:43:19;2.50;1.00
1592;DHT22;789;51.612;7.510;2024-01-15T00:45:45;2.50;1.00
1592;DHT22;789;51.612;7.510;2024-01-15T00:48:12;2.50;1.00
1592;DHT22;789;51.612;7.510;2024-01-15T00:50:39;2.50;1.00
1592;DHT22;789;51.612;7.510;2024-01-15T00:53:07;2.50;1.00
1592;DHT22;789;51.612;7.510;2024-01-15T00:55:34;2.50;1.00
1592;DHT22;789;51.612;7.510;2024-01-15T00:58:01;2.60;1.00
1592;DHT22;789;51.612;7.510;2024-01-15T01:00:28;3.10;1.00
1592;DHT22;789;51.612;7.510;2024-01-15T01:02:55;2.60;1.00
1592;DHT22;789;51.612;7.510;2024-01-15T01:05:21;2.50;1.00
1592;DHT22;789;51.612;7.510;2024-01-15T01:07:48;2.60;1.00
1592;DHT22;789;51.612;7.510;2024-01-15T01:10:16;2.60;1.00
1592;DHT22;789;51.612;7.510;2024-01-15T01:12:43;2.60;1.00
1592;DHT22;789;51.612;7.510;2024-01-15T01:15:10;2.60;1.00
1592;DHT22;789;51.612;7.510;2024-01-15T01:17:37;2.60;1.00
1592;DHT22;789;51.612;7.510;2024-01-15T01:20:04;2.60;1.00
1592;DHT22;789;51.612;7.510;2024-01-15T01:22:33;2.70;1.00
1592;DHT22;789;51.612;7.510;2024-01-15T01:25:00;2.60;1.00
1592;DHT22;789;51.612;7.510;2024-01-15T01:27:28;2.70;1.00
1592;DHT22;789;51.612;7.510;2024-01-15T01:29:55;2.70;1.00
1592;DHT22;789;51.612;7.510;2024-01-15T01:32:22;2.70;1.00
1592;DHT22;789;51.612;7.510;2024-01-15T01:34:49;2.60;1.00
1592;DHT22;789;51.612;7.510;2024-01-15T01:37:15;2.90;1.00
1592;DHT22;789;51.612;7.510;2024-01-15T01:39:44;2.60;1.00
1592;DHT22;789;51.612;7.510;2024-01-15T01:42:11;2.80;1.00
1592;DHT22;789;51.612;7.510;2024-01-15T01:44:39;2.60;1.00
1592;DHT22;789;51.612;7.510;2024-01-15T01:47:06;2.60;1.00
1592;DHT22;789;51.612;7.510;2024-01-15T01:49:33;2.70;1.00
1592;DHT22;789;51.612;7.510;2024-01-15T01:52:02;2.70;1.00
1592;DHT22;789;51.612;7.510;2024-01-15T01:54:32;2.70;1.00
1592;DHT22;789;51.612;7.510;2024-01-15T01:56:59;3.30;1.00
1592;DHT22;789;51.612;7.510;2024-01-15T01:59:28;3.10;1.00
1592;DHT22;789;51.612;7.510;2024-01-15T02:01:59;3.20;1.00
1592;DHT22;789;51.612;7.510;2024-01-15T02:04:29;2.80;1.00
1592;DHT22;789;51.612;7.510;2024-01-15T02:06:56;2.90;1.00
1592;DHT22;789;51.612;7.510;2024-01-15T02:09:23;2.80;1.00
1592;DHT22;789;51.612;7.510;2024-01-15T02:11:50;2.90;1.00
1592;DHT22;789;51.612;7.510;2024-01-15T02:14:17;2.90;1.00
1592;DHT22;789;51.612;7.510;2024-01-15T02:16:44;2.90;1.00
1592;DHT22;789;51.612;7.510;2024-01-15T02:19:16;2.80;1.00
1592;DHT22;789;51.612;7.510;2024-01-15T02:21:43;2.80;1.00
1592;DHT22;789;51.612;7.510;2024-01-15T02:24:11;2.80;1.00
1592;DHT22;789;51.612;7.510;2024-01-15T02:26:38;2.80;1.00
1592;DHT22;789;51.612;7.510;2024-01-15T02:29:05;2.80;1.00
1592;DHT22;789;51.612;7.510;2024-01-15T02:31:33;2.80;1.00
1592;DHT22;789;51.612;7.510;2024-01-15T02:34:00;2.80;1.00
1592;DHT22;789;51.612;7.510;2024-01-15T02:36:27;2.80;1.00
1592;DHT22;789;51.612;7.510;2024-01-15T02:38:53;2.80;1.00
1592;DHT22;789;51.612;7.510;2024-01-15T02:41:21;2.70;1.00
1592;DHT22;789;51.612;7.510;2024-01-15T02:43:48;2.80;1.00
1592;DHT22;789;51.612;7.510;2024-01-15T02:46:15;2.80;1.00
1592;DHT22;789;51.612;7.510;2024-01-15T02:48:42;2.80;1.00
1592;DHT22;789;51.612;7.510;2024-01-15T02:51:08;2.90;1.00
1592;DHT22;789;51.612;7.510;2024-01-15T02:53:36;2.90;1.00
1592;DHT22;789;51.612;7.510;2024-01-15T02:56:03;2.80;1.00
1592;DHT22;789;51.612;7.510;2024-01-15T02:58:31;2.80;1.00
1592;DHT22;789;51.612;7.510;2024-01-15T03:00:58;2.70;1.00
1592;DHT22;789;51.612;7.510;2024-01-15T03:03:25;2.60;1.00
1592;DHT22;789;51.612;7.510;2024-01-15T03:05:51;2.70;1.00
1592;DHT22;789;51.612;7.510;2024-01-15T03:08:18;2.70;1.00
1592;DHT22;789;51.612;7.510;2024-01-15T03:10:45;2.70;1.00
1592;DHT22;789;51.612;7.510;2024-01-15T03:13:11;2.70;1.00
1592;DHT22;789;51.612;7.510;2024-01-15T03:15:39;2.70;1.00
1592;DHT22;789;51.612;7.510;2024-01-15T03:18:06;2.70;1.00
1592;DHT22;789;51.612;7.510;2024-01-15T03:20:33;2.70;1.00
1592;DHT22;789;51.612;7.510;2024-01-15T03:23:00;2.70;1.00
1592;DHT22;789;51.612;7.510;2024-01-15T03:25:26;2.70;1.00
1592;DHT22;789;51.612;7.510;2024-01-15T03:27:53;2.70;1.00
1592;DHT22;789;51.612;7.510;2024-01-15T03:30:20;2.70;1.00
1592;DHT22;789;51.612;7.510;2024-01-15T03:32:48;3.10;1.00
1592;DHT22;789;51.612;7.510;2024-01-15T03:35:15;2.70;1.00
1592;DHT22;789;51.612;7.510;2024-01-15T03:37:42;2.80;1.00
1592;DHT22;789;51.612;7.510;2024-01-15T03:40:09;2.80;1.00
1592;DHT22;789;51.612;7.510;2024-01-15T03:42:37;2.80;1.00
1592;DHT22;789;51.612;7.510;2024-01-15T03:45:04;2.80;1.00
1592;DHT22;789;51.612;7.510;2024-01-15T03:47:31;2.60;1.00
1592;DHT22;789;51.612;7.510;2024-01-15T03:49:59;2.80;1.00
1592;DHT22;789;51.612;7.510;2024-01-15T03:52:26;2.70;1.00
1592;DHT22;789;51.612;7.510;2024-01-15T03:54:52;2.70;1.00
1592;DHT22;789;51.612;7.510;2024-01-15T03:57:19;2.70;1.00
1592;DHT22;789;51.612;7.510;2024-01-15T03:59:46;2.70;1.00
1592;DHT22;789;51.612;7.510;2024-01-15T04:02:12;2.70;1.00
1592;DHT22;789;51.612;7.510;2024-01-15T04:04:41;2.70;1.00
1592;DHT22;789;51.612;7.510;2024-01-15T04:07:09;2.70;1.00
1592;DHT22;789;51.612;7.510;2024-01-15T04:09:35;2.70;1.00
1592;DHT22;789;51.612;7.510;2024-01-15T04:12:02;2.70;1.00
1592;DHT22;789;51.612;7.510;2024-01-15T04:14:29;2.80;1.00
1592;DHT22;789;51.612;7.510;2024-01-15T04:16:56;2.70;1.00
1592;DHT22;789;51.612;7.510;2024-01-15T04:19:23;2.70;1.00
1592;DHT22;789;51.612;7.510;2024-01-15T04:21:49;2.70;1.00
1592;DHT22;789;51.612;7.510;2024-01-15T04:24:18;2.60;1.00
1592;DHT22;789;51.612;7.510;2024-01-15T04:26:44;2.70;1.00
1592;DHT22;789;51.612;7.510;2024-01-15T04:29:12;2.70;1.00
1592;DHT22;789;51.612;7.510;2024-01-15T04:31:39;2.70;1.00
1592;DHT22;789;51.612;7.510;2024-01-15T04:34:07;2.70;1.00
1592;DHT22;789;51.612;7.510;2024-01-15T04:36:38;2.70;1.00
1592;DHT22;789;51.612;7.510;2024-01-15T04:39:05;2.80;1.00
1592;DHT22;789;51.612;7.510;2024-01-15T04:41:34;2.80;1.00
1592;DHT22;789;51.612;7.510;2024-01-15T04:44:00;2.80;1.00
1592;DHT22;789;51.612;7.510;2024-01-15T04:46:27;2.80;1.00
1592;DHT22;789;51.612;7.510;2024-01-15T04:48:54;2.80;1.00
1592;DHT22;789;51.612;7.510;2024-01-15T04:51:21;2.80;1.00
1592;DHT22;789;51.612;7.510;2024-01-15T04:53:48;2.90;1.00
1592;DHT22;789;51.612;7.510;2024-01-15T04:56:15;2.90;1.00
1592;DHT22;789;51.612;7.510;2024-01-15T04:58:43;2.90;1.00
1592;DHT22;789;51.612;7.510;2024-01-15T05:01:11;2.90;1.00
1592;DHT22;789;51.612;7.510;2024-01-15T05:03:38;2.90;1.00
1592;DHT22;789;51.612;7.510;2024-01-15T05:06:05;3.00;1.00
1592;DHT22;789;51.612;7.510;2024-01-15T05:08:32;3.00;1.00
1592;DHT22;789;51.612;7.510;2024-01-15T05:10:58;2.90;1.00
1592;DHT22;789;51.612;7.510;2024-01-15T05:13:25;3.00;1.00
1592;DHT22;789;51.612;7.510;2024-01-15T05:15:53;3.00;1.00
1592;DHT22;789;51.612;7.510;2024-01-15T05:18:20;3.10;1.00
1592;DHT22;789;51.612;7.510;2024-01-15T05:20:47;3.00;1.00
1592;DHT22;789;51.612;7.510;2024-01-15T05:23:14;3.00;1.00
1592;DHT22;789;51.612;7.510;2024-01-15T05:25:42;3.00;1.00
1592;DHT22;789;51.612;7.510;2024-01-15T05:28:08;3.00;1.00
1592;DHT22;789;51.612;7.510;2024-01-15T05:30:35;3.00;1.00
1592;DHT22;789;51.612;7.510;2024-01-15T05:33:04;3.00;1.00
1592;DHT22;789;51.612;7.510;2024-01-15T05:35:30;3.10;1.00
1592;DHT22;789;51.612;7.510;2024-01-15T05:37:57;3.10;1.00
1592;DHT22;789;51.612;7.510;2024-01-15T05:40:24;3.00;1.00
1592;DHT22;789;51.612;7.510;2024-01-15T05:42:50;3.00;1.00
1592;DHT22;789;51.612;7.510;2024-01-15T05:45:17;3.10;1.00
1592;DHT22;789;51.612;7.510;2024-01-15T05:47:44;3.10;1.00
1592;DHT22;789;51.612;7.510;2024-01-15T05:50:12;3.10;1.00
1592;DHT22;789;51.612;7.510;2024-01-15T05:52:38;3.10;1.00
1592;DHT22;789;51.612;7.510;2024-01-15T05:55:06;3.00;1.00
1592;DHT22;789;51.612;7.510;2024-01-15T05:57:32;3.10;1.00
1592;DHT22;789;51.612;7.510;2024-01-15T06:00:00;3.10;1.00
1592;DHT22;789;51.612;7.510;2024-01-15T06:02:27;3.10;1.00
1592;DHT22;789;51.612;7.510;2024-01-15T06:04:53;3.10;1.00
1592;DHT22;789;51.612;7.510;2024-01-15T06:07:22;3.10;1.00
1592;DHT22;789;51.612;7.510;2024-01-15T06:09:49;3.10;1.00
1592;DHT22;789;51.612;7.510;2024-01-15T06:12:16;3.10;1.00
1592;DHT22;789;51.612;7.510;2024-01-15T06:14:42;3.30;1.00
1592;DHT22;789;51.612;7.510;2024-01-15T06:17:09;3.10;1.00
1592;DHT22;789;51.612;7.510;2024-01-15T06:19:36;3.10;1.00
1592;DHT22;789;51.612;7.510;2024-01-15T06:22:03;3.10;1.00
1592;DHT22;789;51.612;7.510;2024-01-15T06:24:31;3.10;1.00
1592;DHT22;789;51.612;7.510;2024-01-15T06:26:58;3.10;1.00
1592;DHT22;789;51.612;7.510;2024-01-15T06:29:26;3.10;1.00
1592;DHT22;789;51.612;7.510;2024-01-15T06:31:53;3.10;1.00
1592;DHT22;789;51.612;7.510;2024-01-15T06:34:21;3.10;1.00
1592;DHT22;789;51.612;7.510;2024-01-15T06:36:48;3.20;1.00
1592;DHT22;789;51.612;7.510;2024-01-15T06:39:14;3.10;1.00
1592;DHT22;789;51.612;7.510;2024-01-15T06:41:43;3.20;1.00
1592;DHT22;789;51.612;7.510;2024-01-15T06:44:09;3.10;1.00
1592;DHT22;789;51.612;7.510;2024-01-15T06:46:36;3.10;1.00
1592;DHT22;789;51.612;7.510;2024-01-15T06:49:07;3.20;1.00
1592;DHT22;789;51.612;7.510;2024-01-15T06:51:34;3.20;1.00
1592;DHT22;789;51.612;7.510;2024-01-15T06:54:00;3.10;1.00
1592;DHT22;789;51.612;7.510;2024-01-15T06:59:39;3.20;1.00
1592;DHT22;789;51.612;7.510;2024-01-15T07:02:06;3.20;1.00
1592;DHT22;789;51.612;7.510;2024-01-15T07:04:33;3.20;1.00
1592;DHT22;789;51.612;7.510;2024-01-15T07:06:59;3.20;1.00
1592;DHT22;789;51.612;7.510;2024-01-15T07:09:26;3.20;1.00
1592;DHT22;789;51.612;7.510;2024-01-15T07:11:54;3.20;1.00
1592;DHT22;789;51.612;7.510;2024-01-15T07:14:22;3.20;1.00
1592;DHT22;789;51.612;7.510;2024-01-15T07:16:50;3.80;1.00
1592;DHT22;789;51.612;7.510;2024-01-15T07:19:17;3.20;1.00
1592;DHT22;789;51.612;7.510;2024-01-15T07:21:44;3.20;1.00
1592;DHT22;789;51.612;7.510;2024-01-15T07:24:10;3.10;1.00
1592;DHT22;789;51.612;7.510;2024-01-15T07:26:37;3.10;1.00
1592;DHT22;789;51.612;7.510;2024-01-15T07:29:04;3.10;1.00
1592;DHT22;789;51.612;7.510;2024-01-15T07:31:31;3.20;1.00
1592;DHT22;789;51.612;7.510;2024-01-15T07:34:00;3.20;1.00
1592;DHT22;789;51.612;7.510;2024-01-15T07:36:27;3.10;1.00
1592;DHT22;789;51.612;7.510;2024-01-15T07:38:55;3.20;1.00
1592;DHT22;789;51.612;7.510;2024-01-15T07:41:25;3.20;1.00
1592;DHT22;789;51.612;7.510;2024-01-15T07:43:51;3.20;1.00
1592;DHT22;789;51.612;7.510;2024-01-15T07:46:18;3.20;1.00
1592;DHT22;789;51.612;7.510;2024-01-15T07:48:45;3.20;1.00
1592;DHT22;789;51.612;7.510;2024-01-15T07:51:13;3.10;1.00
1592;DHT22;789;51.612;7.510;2024-01-15T07:53:40;3.50;1.00
1592;DHT22;789;51.612;7.510;2024-01-15T07:56:07;3.30;1.00
1592;DHT22;789;51.612;7.510;2024-01-15T07:58:33;3.30;1.00
1592;DHT22;789;51.612;7.510;2024-01-15T08:01:00;3.30;1.00
1592;DHT22;789;51.612;7.510;2024-01-15T08:03:27;3.30;1.00
1592;DHT22;789;51.612;7.510;2024-01-15T08:05:54;3.20;1.00
1592;DHT22;789;51.612;7.510;2024-01-15T08:08:24;3.10;1.00
1592;DHT22;789;51.612;7.510;2024-01-15T08:10:51;3.10;1.00
1592;DHT22;789;51.612;7.510;2024-01-15T08:13:18;3.10;1.00
1592;DHT22;789;51.612;7.510;2024-01-15T08:15:45;3.00;1.00
1592;DHT22;789;51.612;7.510;2024-01-15T08:18:12;3.00;1.00
1592;DHT22;789;51.612;7.510;2024-01-15T08:20:39;3.00;1.00
1592;DHT22;789;51.612;7.510;2024-01-15T08:23:06;2.40;1.00
1592;DHT22;789;51.612;7.510;2024-01-15T08:25:35;2.90;1.00
1592;DHT22;789;51.612;7.510;2024-01-15T08:28:02;2.90;1.00
1592;DHT22;789;51.612;7.510;2024-01-15T08:30:29;2.90;1.00
1592;DHT22;789;51.612;7.510;2024-01-15T08:32:56;2.90;1.00
1592;DHT22;789;51.612;7.510;2024-01-15T08:35:24;2.90;1.00
1592;DHT22;789;51.612;7.510;2024-01-15T08:37:52;2.90;1.00
1592;DHT22;789;51.612;7.510;2024-01-15T08:40:19;3.00;1.00
1592;DHT22;789;51.612;7.510;2024-01-15T08:42:48;2.90;1.00
1592;DHT22;789;51.612;7.510;2024-01-15T08:45:15;3.40;1.00
1592;DHT22;789;51.612;7.510;2024-01-15T08:47:41;3.00;1.00
1592;DHT22;789;51.612;7.510;2024-01-15T08:50:07;3.00;1.00
1592;DHT22;789;51.612;7.510;2024-01-15T08:52:36;3.00;1.00
1592;DHT22;789;51.612;7.510;2024-01-15T08:55:03;3.00;1.00
1592;DHT22;789;51.612;7.510;2024-01-15T08:57:30;3.10;1.00
1592;DHT22;789;51.612;7.510;2024-01-15T08:59:58;3.70;1.00
1592;DHT22;789;51.612;7.510;2024-01-15T09:02:25;3.00;1.00
1592;DHT22;789;51.612;7.510;2024-01-15T09:04:52;3.80;1.00
1592;DHT22;789;51.612;7.510;2024-01-15T09:07:19;3.00;1.00
1592;DHT22;789;51.612;7.510;2024-01-15T09:09:47;3.10;1.00
1592;DHT22;789;51.612;7.510;2024-01-15T09:12:14;3.10;1.00
1592;DHT22;789;51.612;7.510;2024-01-15T09:14:42;3.00;1.00
1592;DHT22;789;51.612;7.510;2024-01-15T09:17:10;3.00;1.00
1592;DHT22;789;51.612;7.510;2024-01-15T09:19:39;3.00;1.00
1592;DHT22;789;51.612;7.510;2024-01-15T09:22:06;2.90;1.00
1592;DHT22;789;51.612;7.510;2024-01-15T09:24:32;3.00;1.00
1592;DHT22;789;51.612;7.510;2024-01-15T09:26:59;3.00;1.00
1592;DHT22;789;51.612;7.510;2024-01-15T09:29:26;3.00;1.00
1592;DHT22;789;51.612;7.510;2024-01-15T09:31:53;3.00;1.00
1592;DHT22;789;51.612;7.510;2024-01-15T09:34:23;3.00;1.00
1592;DHT22;789;51.612;7.510;2024-01-15T09:36:50;3.10;1.00
1592;DHT22;789;51.612;7.510;2024-01-15T09:39:17;3.10;1.00
1592;DHT22;789;51.612;7.510;2024-01-15T09:41:47;3.10;1.00
1592;DHT22;789;51.612;7.510;2024-01-15T09:44:15;3.10;1.00
1592;DHT22;789;51.612;7.510;2024-01-15T09:46:42;3.10;1.00
1592;DHT22;789;51.612;7.510;2024-01-15T09:49:10;3.10;1.00
1592;DHT22;789;51.612;7.510;2024-01-15T09:51:38;3.00;1.00
1592;DHT22;789;51.612;7.510;2024-01-15T09:54:05;3.10;1.00
1592;DHT22;789;51.612;7.510;2024-01-15T09:56:33;3.10;1.00
1592;DHT22;789;51.612;7.510;2024-01-15T09:59:00;3.00;1.00
1592;DHT22;789;51.612;7.510;2024-01-15T10:01:27;3.50;1.00
1592;DHT22;789;51.612;7.510;2024-01-15T10:03:55;3.00;1.00
1592;DHT22;789;51.612;7.510;2024-01-15T10:06:22;3.00;1.00
1592;DHT22;789;51.612;7.510;2024-01-15T10:08:51;3.00;1.00
1592;DHT22;789;51.612;7.510;2024-01-15T10:11:18;3.10;1.00
1592;DHT22;789;51.612;7.510;2024-01-15T10:13:45;3.10;1.00
1592;DHT22;789;51.612;7.510;2024-01-15T10:16:12;3.10;1.00
1592;DHT22;789;51.612;7.510;2024-01-15T10:18:38;3.10;1.00
1592;DHT22;789;51.612;7.510;2024-01-15T10:21:06;3.10;1.00
1592;DHT22;789;51.612;7.510;2024-01-15T10:23:34;3.20;1.00
1592;DHT22;789;51.612;7.510;2024-01-15T10:26:03;3.20;1.00
1592;DHT22;789;51.612;7.510;2024-01-15T10:28:30;3.30;1.00
1592;DHT22;789;51.612;7.510;2024-01-15T10:30:59;3.30;1.00
1592;DHT22;789;51.612;7.510;2024-01-15T10:33:31;3.20;1.00
1592;DHT22;789;51.612;7.510;2024-01-15T10:35:59;3.30;1.00
1592;DHT22;789;51.612;7.510;2024-01-15T10:38:27;3.30;1.00
1592;DHT22;789;51.612;7.510;2024-01-15T10:40:54;3.30;1.00
1592;DHT22;789;51.612;7.510;2024-01-15T10:43:23;3.90;1.00
1592;DHT22;789;51.612;7.510;2024-01-15T10:45:50;3.20;1.00
1592;DHT22;789;51.612;7.510;2024-01-15T10:48:19;3.30;1.00
1592;DHT22;789;51.612;7.510;2024-01-15T10:50:46;3.20;1.00
1592;DHT22;789;51.612;7.510;2024-01-15T10:53:15;3.30;1.00
1592;DHT22;789;51.612;7.510;2024-01-15T10:55:43;3.40;1.00
1592;DHT22;789;51.612;7.510;2024-01-15T10:58:10;3.40;1.00
1592;DHT22;789;51.612;7.510;2024-01-15T11:00:38;3.50;1.00
1592;DHT22;789;51.612;7.510;2024-01-15T11:03:06;3.60;1.00
1592;DHT22;789;51.612;7.510;2024-01-15T11:05:33;3.70;1.00
1592;DHT22;789;51.612;7.510;2024-01-15T11:08:01;3.70;1.00
1592;DHT22;789;51.612;7.510;2024-01-15T11:10:45;3.60;1.00
1592;DHT22;789;51.612;7.510;2024-01-15T11:13:15;3.60;1.00
1592;DHT22;789;51.612;7.510;2024-01-15T11:15:59;3.60;1.00
1592;DHT22;789;51.612;7.510;2024-01-15T11:18:30;3.80;1.00
1592;DHT22;789;51.612;7.510;2024-01-15T11:21:19;3.90;1.00
1592;DHT22;789;51.612;7.510;2024-01-15T11:23:48;4.20;1.00
1592;DHT22;789;51.612;7.510;2024-01-15T11:26:28;4.40;1.00
1592;DHT22;789;51.612;7.510;2024-01-15T11:28:56;4.60;1.00
1592;DHT22;789;51.612;7.510;2024-01-15T11:31:28;4.70;1.00
1592;DHT22;789;51.612;7.510;2024-01-15T11:33:55;5.30;1.00
1592;DHT22;789;51.612;7.510;2024-01-15T11:36:23;4.80;1.00
1592;DHT22;789;51.612;7.510;2024-01-15T11:39:40;4.80;1.00
1592;DHT22;789;51.612;7.510;2024-01-15T11:42:09;4.90;1.00
1592;DHT22;789;51.612;7.510;2024-01-15T11:44:38;5.40;1.00
1592;DHT22;789;51.612;7.510;2024-01-15T11:47:07;4.70;1.00
1592;DHT22;789;51.612;7.510;2024-01-15T11:49:57;4.50;1.00
1592;DHT22;789;51.612;7.510;2024-01-15T11:52:25;5.10;1.00
1592;DHT22;789;51.612;7.510;2024-01-15T11:54:59;4.50;1.00
1592;DHT22;789;51.612;7.510;2024-01-15T11:57:36;4.60;1.00
1592;DHT22;789;51.612;7.510;2024-01-15T12:00:05;4.40;1.00
1592;DHT22;789;51.612;7.510;2024-01-15T12:02:34;4.50;1.00
1592;DHT22;789;51.612;7.510;2024-01-15T12:05:01;4.40;1.00
1592;DHT22;789;51.612;7.510;2024-01-15T12:07:28;4.30;1.00
1592;DHT22;789;51.612;7.510;2024-01-15T12:09:55;4.30;1.00
1592;DHT22;789;51.612;7.510;2024-01-15T12:12:29;4.30;1.00
1592;DHT22;789;51.612;7.510;2024-01-15T12:15:00;4.30;1.00
1592;DHT22;789;51.612;7.510;2024-01-15T12:17:26;4.20;1.00
1592;DHT22;789;51.612;7.510;2024-01-15T12:19:55;4.20;1.00
1592;DHT22;789;51.612;7.510;2024-01-15T12:22:23;4.10;1.00
1592;DHT22;789;51.612;7.510;2024-01-15T12:24:50;4.00;1.00
1592;DHT22;789;51.612;7.510;2024-01-15T12:27:17;4.00;1.00
1592;DHT22;789;51.612;7.510;2024-01-15T12:29:44;3.90;1.00
1592;DHT22;789;51.612;7.510;2024-01-15T12:32:12;4.00;1.00
1592;DHT22;789;51.612;7.510;2024-01-15T12:34:39;3.90;1.00
1592;DHT22;789;51.612;7.510;2024-01-15T12:54:23;3.80;1.00
1592;DHT22;789;51.612;7.510;2024-01-15T12:56:50;4.50;1.00
1592;DHT22;789;51.612;7.510;2024-01-15T12:59:17;4.40;1.00
1592;DHT22;789;51.612;7.510;2024-01-15T13:01:44;4.40;1.00
1592;DHT22;789;51.612;7.510;2024-01-15T13:04:11;4.40;1.00
1592;DHT22;789;51.612;7.510;2024-01-15T13:06:38;4.40;1.00
1592;DHT22;789;51.612;7.510;2024-01-15T13:09:05;4.30;1.00
1592;DHT22;789;51.612;7.510;2024-01-15T13:11:33;4.30;1.00
1592;DHT22;789;51.612;7.510;2024-01-15T13:14:00;4.30;1.00
1592;DHT22;789;51.612;7.510;2024-01-15T13:16:27;4.30;1.00
1592;DHT22;789;51.612;7.510;2024-01-15T13:18:55;4.20;1.00
1592;DHT22;789;51.612;7.510;2024-01-15T13:21:22;4.30;1.00
1592;DHT22;789;51.612;7.510;2024-01-15T13:23:51;4.20;1.00
1592;DHT22;789;51.612;7.510;2024-01-15T13:26:18;4.90;1.00
1592;DHT22;789;51.612;7.510;2024-01-15T13:28:47;4.20;1.00
1592;DHT22;789;51.612;7.510;2024-01-15T13:31:16;4.20;1.00
1592;DHT22;789;51.612;7.510;2024-01-15T13:33:43;4.60;1.00
1592;DHT22;789;51.612;7.510;2024-01-15T13:36:10;4.10;1.00
1592;DHT22;789;51.612;7.510;2024-01-15T13:38:36;4.10;1.00
1592;DHT22;789;51.612;7.510;2024-01-15T13:41:04;4.00;1.00
1592;DHT22;789;51.612;7.510;2024-01-15T13:43:31;4.10;1.00
1592;DHT22;789;51.612;7.510;2024-01-15T13:45:59;4.00;1.00
1592;DHT22;789;51.612;7.510;2024-01-15T13:48:26;4.10;1.00
1592;DHT22;789;51.612;7.510;2024-01-15T13:50:52;4.10;1.00
1592;DHT22;789;51.612;7.510;2024-01-15T13:53:19;4.10;1.00
1592;DHT22;789;51.612;7.510;2024-01-15T13:55:46;4.10;1.00
1592;DHT22;789;51.612;7.510;2024-01-15T13:58:13;4.10;1.00
1592;DHT22;789;51.612;7.510;2024-01-15T14:00:40;4.10;1.00
1592;DHT22;789;51.612;7.510;2024-01-15T14:03:08;4.20;1.00
1592;DHT22;789;51.612;7.510;2024-01-15T14:05:34;4.20;1.00
1592;DHT22;789;51.612;7.510;2024-01-15T14:08:01;4.20;1.00
1592;DHT22;789;51.612;7.510;2024-01-15T14:10:29;4.20;1.00
1592;DHT22;789;51.612;7.510;2024-01-15T14:12:55;4.10;1.00
1592;DHT22;789;51.612;7.510;2024-01-15T14:15:22;4.10;1.00
1592;DHT22;789;51.612;7.510;2024-01-15T14:17:48;4.10;1.00
1592;DHT22;789;51.612;7.510;2024-01-15T14:20:17;4.10;1.00
1592;DHT22;789;51.612;7.510;2024-01-15T14:22:44;4.20;1.00
1592;DHT22;789;51.612;7.510;2024-01-15T14:25:11;4.20;1.00
1592;DHT22;789;51.612;7.510;2024-01-15T14:27:37;4.20;1.00
1592;DHT22;789;51.612;7.510;2024-01-15T14:30:05;4.10;1.00
1592;DHT22;789;51.612;7.510;2024-01-15T14:32:34;4.10;1.00
1592;DHT22;789;51.612;7.510;2024-01-15T14:35:01;4.10;1.00
1592;DHT22;789;51.612;7.510;2024-01-15T14:37:32;4.00;1.00
1592;DHT22;789;51.612;7.510;2024-01-15T14:39:59;4.10;1.00
1592;DHT22;789;51.612;7.510;2024-01-15T14:42:25;4.00;1.00
1592;DHT22;789;51.612;7.510;2024-01-15T14:44:53;4.00;1.00
1592;DHT22;789;51.612;7.510;2024-01-15T14:47:20;4.00;1.00
1592;DHT22;789;51.612;7.510;2024-01-15T14:49:49;4.00;1.00
1592;DHT22;789;51.612;7.510;2024-01-15T14:52:16;3.70;1.00
1592;DHT22;789;51.612;7.510;2024-01-15T14:54:45;3.90;1.00
1592;DHT22;789;51.612;7.510;2024-01-15T14:57:13;3.90;1.00
1592;DHT22;789;51.612;7.510;2024-01-15T14:59:40;4.50;1.00
1592;DHT22;789;51.612;7.510;2024-01-15T15:02:07;4.20;1.00
1592;DHT22;789;51.612;7.510;2024-01-15T15:04:34;3.80;1.00
1592;DHT22;789;51.612;7.510;2024-01-15T15:07:00;3.90;1.00
1592;DHT22;789;51.612;7.510;2024-01-15T15:09:27;3.80;1.00
1592;DHT22;789;51.612;7.510;2024-01-15T15:11:57;3.80;1.00
1592;DHT22;789;51.612;7.510;2024-01-15T15:14:23;3.80;1.00
1592;DHT22;789;51.612;7.510;2024-01-15T15:16:50;3.80;1.00
1592;DHT22;789;51.612;7.510;2024-01-15T15:19:17;3.80;1.00
1592;DHT22;789;51.612;7.510;2024-01-15T15:21:44;3.80;1.00
1592;DHT22;789;51.612;7.510;2024-01-15T15:24:11;3.70;1.00
1592;DHT22;789;51.612;7.510;2024-01-15T15:26:38;3.70;1.00
1592;DHT22;789;51.612;7.510;2024-01-15T15:29:06;3.60;1.00
1592;DHT22;789;51.612;7.510;2024-01-15T15:31:33;3.50;1.00
1592;DHT22;789;51.612;7.510;2024-01-15T15:33:59;3.60;1.00
1592;DHT22;789;51.612;7.510;2024-01-15T15:36:26;3.50;1.00
1592;DHT22;789;51.612;7.510;2024-01-15T15:38:53;3.50;1.00
1592;DHT22;789;51.612;7.510;2024-01-15T15:41:21;3.60;1.00
1592;DHT22;789;51.612;7.510;2024-01-15T15:43:47;3.60;1.00
1592;DHT22;789;51.612;7.510;2024-01-15T15:46:16;3.70;1.00
1592;DHT22;789;51.612;7.510;2024-01-15T15:48:44;3.60;1.00
1592;DHT22;789;51.612;7.510;2024-01-15T15:51:11;3.50;1.00
1592;DHT22;789;51.612;7.510;2024-01-15T15:53:38;3.50;1.00
1592;DHT22;789;51.612;7.510;2024-01-15T15:56:05;3.50;1.00
1592;DHT22;789;51.612;7.510;2024-01-15T15:58:32;3.50;1.00
1592;DHT22;789;51.612;7.510;2024-01-15T16:00:59;3.50;1.00
1592;DHT22;789;51.612;7.510;2024-01-15T16:03:27;3.50;1.00
1592;DHT22;789;51.612;7.510;2024-01-15T16:05:54;3.50;1.00
1592;DHT22;789;51.612;7.510;2024-01-15T16:08:21;3.50;1.00
1592;DHT22;789;51.612;7.510;2024-01-15T16:10:47;3.40;1.00
1592;DHT22;789;51.612;7.510;2024-01-15T16:13:22;3.30;1.00
1592;DHT22;789;51.612;7.510;2024-01-15T16:15:49;3.30;1.00
1592;DHT22;789;51.612;7.510;2024-01-15T16:18:16;3.30;1.00
1592;DHT22;789;51.612;7.510;2024-01-15T16:20:44;3.20;1.00
1592;DHT22;789;51.612;7.510;2024-01-15T16:23:11;3.20;1.00
1592;DHT22;789;51.612;7.510;2024-01-15T16:25:40;3.20;1.00
1592;DHT22;789;51.612;7.510;2024-01-15T16:28:07;3.10;1.00
1592;DHT22;789;51.612;7.510;2024-01-15T16:30:34;3.10;1.00
1592;DHT22;789;51.612;7.510;2024-01-15T16:33:00;3.10;1.00
1592;DHT22;789;51.612;7.510;2024-01-15T16:35:27;3.00;1.00
1592;DHT22;789;51.612;7.510;2024-01-15T16:37:55;3.40;1.00
1592;DHT22;789;51.612;7.510;2024-01-15T16:40:22;3.00;1.00
1592;DHT22;789;51.612;7.510;2024-01-15T16:42:49;3.00;1.00
1592;DHT22;789;51.612;7.510;2024-01-15T16:45:16;3.00;1.00
1592;DHT22;789;51.612;7.510;2024-01-15T16:47:42;2.90;1.00
1592;DHT22;789;51.612;7.510;2024-01-15T16:50:09;2.90;1.00
1592;DHT22;789;51.612;7.510;2024-01-15T16:52:36;2.90;1.00
1592;DHT22;789;51.612;7.510;2024-01-15T16:55:04;3.20;1.00
1592;DHT22;789;51.612;7.510;2024-01-15T16:57:31;2.80;1.00
1592;DHT22;789;51.612;7.510;2024-01-15T16:59:58;2.80;1.00
1592;DHT22;789;51.612;7.510;2024-01-15T17:02:24;2.80;1.00
1592;DHT22;789;51.612;7.510;2024-01-15T17:04:51;2.80;1.00
1592;DHT22;789;51.612;7.510;2024-01-15T17:07:18;2.70;1.00
1592;DHT22;789;51.612;7.510;2024-01-15T17:09:45;2.70;1.00
1592;DHT22;789;51.612;7.510;2024-01-15T17:12:13;2.70;1.00
1592;DHT22;789;51.612;7.510;2024-01-15T17:14:40;2.60;1.00